Time;durP1;ratioP1;P1;durP2;ratioP2;P2;SDS_P1;SDS_P2;PMS_P1;PMS_P2;Temp;Humidity;BMP_temperature;BMP_pressure;BME280_temperature;BME280_humidity;BME280_pressure;Samples;Min_cycle;Max_cycle;Signal;HPM_P1;HPM_P2
2023/09/21 00:01:05;;;;;;;3.15;2.20;;;;;;;15.78;100.00;95241.69;4983423;28;20038;-66
2023/09/21 00:03:31;;;;;;;5.25;2.17;;;;;;;15.78;100.00;95239.03;4985814;28;20076;-65
2023/09/21 00:05:58;;;;;;;2.08;1.90;;;;;;;15.79;100.00;95240.69;4980132;28;20023;-65
2023/09/21 00:08:24;;;;;;;3.05;1.95;;;;;;;15.81;100.00;95240.50;4955972;28;20478;-66
2023/09/21 00:10:54;;;;;;;3.70;2.05;;;;;;;15.82;100.00;95232.34;4977438;28;20483;-65
2023/09/21 00:13:26;;;;;;;4.13;2.13;;;;;;;15.83;100.00;95225.22;4987757;28;20022;-66
2023/09/21 00:15:55;;;;;;;7.43;2.38;;;;;;;15.82;100.00;95213.75;4981977;28;20083;-65
2023/09/21 00:18:24;;;;;;;3.63;1.90;;;;;;;15.83;100.00;95206.63;4958726;28;20019;-65
2023/09/21 00:20:55;;;;;;;6.25;2.28;;;;;;;15.78;100.00;95203.69;4985828;28;20022;-65
2023/09/21 00:23:26;;;;;;;3.70;2.20;;;;;;;15.72;100.00;95211.41;4990393;28;20023;-66
2023/09/21 00:25:58;;;;;;;4.60;2.17;;;;;;;15.66;100.00;95217.47;4990199;28;20113;-66
2023/09/21 00:28:25;;;;;;;3.35;1.90;;;;;;;15.64;100.00;95219.47;4975729;28;20072;-66
2023/09/21 00:30:55;;;;;;;2.35;2.03;;;;;;;15.61;100.00;95222.50;4984045;28;20035;-66
2023/09/21 00:33:22;;;;;;;4.35;2.00;;;;;;;15.59;100.00;95211.25;4983014;28;20027;-65
2023/09/21 00:35:49;;;;;;;2.92;1.92;;;;;;;15.58;100.00;95214.88;4987726;28;20034;-65
2023/09/21 00:38:20;;;;;;;6.40;2.08;;;;;;;15.56;100.00;95217.75;4991852;28;20498;-65
2023/09/21 00:40:46;;;;;;;3.25;2.20;;;;;;;15.54;100.00;95218.91;4974191;28;20120;-65
2023/09/21 00:43:24;;;;;;;4.68;2.00;;;;;;;15.54;100.00;95208.31;4980437;28;20574;-65
2023/09/21 00:45:57;;;;;;;7.50;2.08;;;;;;;15.58;100.00;95209.59;4986739;28;20363;-66
2023/09/21 00:48:26;;;;;;;6.10;2.15;;;;;;;15.60;100.00;95199.63;4986587;28;20770;-65
2023/09/21 00:50:57;;;;;;;5.65;2.47;;;;;;;15.62;100.00;95197.63;4984830;28;20090;-65
2023/09/21 00:53:27;;;;;;;3.75;2.30;;;;;;;15.59;100.00;95190.84;4987465;28;20483;-65
2023/09/21 00:55:57;;;;;;;4.78;2.60;;;;;;;15.60;100.00;95186.38;4989712;28;20136;-67
2023/09/21 00:58:26;;;;;;;4.45;2.30;;;;;;;15.60;100.00;95192.47;4991548;28;20062;-66
2023/09/21 01:00:55;;;;;;;3.78;2.05;;;;;;;15.67;100.00;95179.31;4990153;28;20082;-65
2023/09/21 01:03:23;;;;;;;5.32;2.10;;;;;;;15.66;100.00;95174.16;4988911;28;20033;-65
2023/09/21 01:05:53;;;;;;;2.10;2.00;;;;;;;15.63;100.00;95170.06;4991629;28;20049;-65
2023/09/21 01:08:21;;;;;;;5.97;2.28;;;;;;;15.60;100.00;95176.56;4983168;28;20084;-66
2023/09/21 01:10:51;;;;;;;5.25;2.00;;;;;;;15.57;100.00;95166.31;4984183;28;20484;-65
2023/09/21 01:13:19;;;;;;;3.38;2.30;;;;;;;15.55;100.00;95171.00;4974105;28;20035;-65
2023/09/21 01:15:58;;;;;;;2.85;2.50;;;;;;;15.55;100.00;95167.50;4982041;28;20541;-65
2023/09/21 01:18:28;;;;;;;3.38;2.97;;;;;;;15.52;100.00;95158.13;4995291;28;20034;-65
2023/09/21 01:21:02;;;;;;;2.90;2.30;;;;;;;15.52;100.00;95162.56;4979422;28;20025;-65
2023/09/21 01:23:42;;;;;;;2.40;2.20;;;;;;;15.50;100.00;95154.81;4972007;28;20026;-65
2023/09/21 01:26:08;;;;;;;4.38;2.35;;;;;;;15.52;100.00;95157.28;4980558;28;20037;-65
2023/09/21 01:28:34;;;;;;;2.80;2.30;;;;;;;15.52;100.00;95147.50;4978027;28;20031;-65
2023/09/21 01:31:02;;;;;;;5.38;2.20;;;;;;;15.54;100.00;95144.66;4968919;28;20031;-65
2023/09/21 01:33:29;;;;;;;2.60;2.40;;;;;;;15.50;100.00;95136.25;4953384;28;20092;-66
2023/09/21 01:35:55;;;;;;;3.88;2.50;;;;;;;15.50;100.00;95138.06;4985160;28;20026;-65
2023/09/21 01:38:27;;;;;;;4.43;2.42;;;;;;;15.49;100.00;95131.13;4979783;28;20433;-65
2023/09/21 01:40:53;;;;;;;3.42;2.35;;;;;;;15.44;100.00;95129.84;4979067;28;20057;-66
2023/09/21 01:43:19;;;;;;;2.47;2.28;;;;;;;15.39;100.00;95132.25;4990187;28;20053;-65
2023/09/21 01:45:48;;;;;;;2.50;2.28;;;;;;;15.37;100.00;95128.13;4987145;28;20058;-65
2023/09/21 01:48:18;;;;;;;2.58;2.30;;;;;;;15.35;100.00;95120.34;4982907;28;20041;-65
2023/09/21 01:50:47;;;;;;;4.65;2.33;;;;;;;15.39;100.00;95113.69;4981318;28;20030;-66
2023/09/21 01:53:20;;;;;;;6.18;2.50;;;;;;;15.35;100.00;95115.03;4992476;28;20033;-65
2023/09/21 01:55:48;;;;;;;4.07;2.17;;;;;;;15.33;100.00;95109.94;4984391;28;20602;-66
2023/09/21 01:58:15;;;;;;;4.00;2.55;;;;;;;15.31;100.00;95108.47;4969741;28;20066;-65
2023/09/21 02:00:48;;;;;;;3.75;2.30;;;;;;;15.26;100.00;95106.41;4989081;28;20030;-66
2023/09/21 02:03:18;;;;;;;6.65;2.38;;;;;;;15.22;100.00;95101.66;4982437;28;20023;-65
2023/09/21 02:05:46;;;;;;;6.55;2.90;;;;;;;15.20;100.00;95101.81;4987568;28;20030;-65
2023/09/21 02:08:13;;;;;;;9.70;2.60;;;;;;;15.14;100.00;95100.75;4986372;28;20379;-66
2023/09/21 02:10:43;;;;;;;7.43;2.70;;;;;;;15.13;100.00;95096.41;4954003;28;20037;-66
2023/09/21 02:13:08;;;;;;;4.40;2.38;;;;;;;15.11;100.00;95087.84;4987611;28;20022;-65
2023/09/21 02:15:39;;;;;;;6.28;2.20;;;;;;;15.07;100.00;95086.56;4980760;28;20056;-66
2023/09/21 02:18:07;;;;;;;2.70;2.50;;;;;;;15.02;100.00;95088.97;4984926;28;20026;-65
2023/09/21 02:20:38;;;;;;;3.22;2.25;;;;;;;15.09;100.00;95079.25;4977894;28;20014;-65
2023/09/21 02:23:05;;;;;;;2.65;2.25;;;;;;;15.02;100.00;95078.34;4972366;28;20022;-65
2023/09/21 02:25:38;;;;;;;6.28;2.10;;;;;;;14.98;100.00;95077.09;4969188;28;20033;-65
2023/09/21 02:28:09;;;;;;;5.63;2.65;;;;;;;14.97;100.00;95072.78;4986500;28;20060;-66
2023/09/21 02:30:37;;;;;;;2.80;2.15;;;;;;;14.92;100.00;95067.19;4986768;28;20499;-66
2023/09/21 02:33:09;;;;;;;4.78;2.17;;;;;;;14.93;100.00;95063.56;4983619;28;20106;-65
2023/09/21 02:35:40;;;;;;;4.38;2.47;;;;;;;14.91;100.00;95061.09;4982119;28;20037;-65
2023/09/21 02:38:07;;;;;;;2.88;1.95;;;;;;;14.92;100.00;95053.94;4981384;28;20046;-65
2023/09/21 02:40:34;;;;;;;4.28;1.95;;;;;;;14.92;100.00;95053.94;4987826;28;20018;-66
2023/09/21 02:42:59;;;;;;;2.78;2.20;;;;;;;14.93;100.00;95059.06;4975543;28;20030;-65
2023/09/21 02:45:25;;;;;;;4.35;1.90;;;;;;;14.93;100.00;95048.47;4983722;28;20085;-65
2023/09/21 02:47:54;;;;;;;8.77;2.10;;;;;;;14.88;100.00;95048.22;4989919;28;20050;-66
2023/09/21 02:50:27;;;;;;;2.92;2.38;;;;;;;14.85;100.00;95045.94;4971735;28;20545;-65
2023/09/21 02:52:55;;;;;;;5.18;2.33;;;;;;;14.81;100.00;95049.94;4982486;28;20061;-66
2023/09/21 02:55:22;;;;;;;5.60;2.10;;;;;;;14.78;100.00;95040.53;4984945;28;20059;-65
2023/09/21 02:58:10;;;;;;;1.98;1.85;;;;;;;14.76;100.00;95034.63;4989637;28;20026;-65
2023/09/21 03:00:42;;;;;;;1.92;1.83;;;;;;;14.74;100.00;95029.50;4981852;28;20030;-65
2023/09/21 03:03:15;;;;;;;4.15;2.30;;;;;;;14.71;100.00;95031.69;4993118;28;20030;-65
2023/09/21 03:05:47;;;;;;;2.42;2.20;;;;;;;14.69;100.00;95036.31;4982447;28;20026;-65
2023/09/21 03:08:17;;;;;;;2.67;1.98;;;;;;;14.67;100.00;95030.38;4992771;28;20101;-65
2023/09/21 03:10:45;;;;;;;3.25;2.20;;;;;;;14.67;100.00;95028.56;4993348;28;20076;-65
2023/09/21 03:13:13;;;;;;;4.93;2.10;;;;;;;14.68;100.00;95024.06;4995676;28;20027;-65
2023/09/21 03:15:40;;;;;;;5.95;2.10;;;;;;;14.66;100.00;95018.97;4975267;28;20033;-66
2023/09/21 03:18:09;;;;;;;5.70;2.00;;;;;;;14.63;100.00;95021.16;4992207;28;20134;-65
2023/09/21 03:20:36;;;;;;;2.60;1.67;;;;;;;14.59;100.00;95018.06;4991111;28;20022;-65
2023/09/21 03:23:09;;;;;;;2.58;1.65;;;;;;;14.59;100.00;95018.06;4988509;28;20041;-65
2023/09/21 03:25:43;;;;;;;1.88;1.60;;;;;;;14.55;100.00;95009.66;4987814;28;20039;-67
2023/09/21 03:28:15;;;;;;;2.15;1.55;;;;;;;14.55;100.00;95006.16;4998736;28;20018;-66
2023/09/21 03:30:43;;;;;;;5.07;2.30;;;;;;;14.53;100.00;94995.78;4988694;28;20027;-66
2023/09/21 03:33:10;;;;;;;3.20;1.67;;;;;;;14.49;100.00;95002.44;4977783;28;20019;-65
2023/09/21 03:35:37;;;;;;;1.95;1.75;;;;;;;14.48;100.00;95011.41;4990497;28;20022;-65
2023/09/21 03:38:11;;;;;;;2.90;2.05;;;;;;;14.45;100.00;95003.78;4990468;28;20061;-65
2023/09/21 03:40:38;;;;;;;2.53;2.22;;;;;;;14.47;100.00;94996.50;4985729;28;20452;-65
2023/09/21 03:43:06;;;;;;;6.47;1.85;;;;;;;14.48;100.00;94992.88;4981240;28;20030;-66
2023/09/21 03:45:33;;;;;;;4.13;3.08;;;;;;;14.50;100.00;94990.84;4989646;28;20054;-66
2023/09/21 03:48:04;;;;;;;1.90;1.80;;;;;;;14.55;100.00;94977.88;4982763;28;20030;-65
2023/09/21 03:50:31;;;;;;;2.65;1.70;;;;;;;14.57;100.00;94972.38;4991520;28;20488;-65
2023/09/21 03:52:59;;;;;;;6.32;1.48;;;;;;;14.57;100.00;94964.44;4982442;28;20388;-65
2023/09/21 03:55:24;;;;;;;3.25;1.70;;;;;;;14.57;100.00;94952.03;4977308;28;20108;-65
2023/09/21 03:57:51;;;;;;;2.78;2.58;;;;;;;14.58;100.00;94952.81;4991216;28;20030;-65
2023/09/21 04:00:29;;;;;;;4.32;1.70;;;;;;;14.57;100.00;94951.19;4986403;28;20072;-65
2023/09/21 04:03:00;;;;;;;2.55;1.75;;;;;;;14.55;100.00;94948.75;4997541;28;20038;-65
2023/09/21 04:05:34;;;;;;;1.73;1.58;;;;;;;14.56;100.00;94941.59;4989197;28;20045;-65
2023/09/21 04:08:04;;;;;;;2.92;1.80;;;;;;;14.56;100.00;94942.44;4995731;28;20034;-65
2023/09/21 04:10:32;;;;;;;4.85;2.75;;;;;;;14.57;100.00;94945.88;4989370;28;20019;-66
2023/09/21 04:12:58;;;;;;;3.80;1.80;;;;;;;14.56;100.00;94942.44;4958965;28;20023;-65
2023/09/21 04:15:26;;;;;;;8.50;1.90;;;;;;;14.55;100.00;94945.25;4986652;28;20145;-65
2023/09/21 04:17:54;;;;;;;1.67;1.58;;;;;;;14.53;100.00;94942.81;4987311;28;20454;-65
2023/09/21 04:20:21;;;;;;;3.20;1.63;;;;;;;14.53;100.00;94934.03;4976732;28;20022;-66
2023/09/21 04:22:49;;;;;;;2.78;1.80;;;;;;;14.51;100.00;94936.88;4986391;28;20026;-65
2023/09/21 04:25:16;;;;;;;2.50;1.83;;;;;;;14.50;100.00;94943.19;4986201;28;20023;-65
2023/09/21 04:27:44;;;;;;;3.30;3.00;;;;;;;14.46;100.00;94944.53;4987154;28;20022;-65
2023/09/21 04:30:14;;;;;;;6.55;3.90;;;;;;;14.45;100.00;94942.88;4977720;28;20362;-65
2023/09/21 04:32:42;;;;;;;3.40;2.30;;;;;;;14.45;100.00;94934.94;4987829;28;20026;-65
2023/09/21 04:35:08;;;;;;;4.75;2.10;;;;;;;14.44;100.00;94931.50;4986360;28;20019;-66
2023/09/21 04:37:34;;;;;;;4.30;2.05;;;;;;;14.40;100.00;94935.53;4969265;28;20034;-65
2023/09/21 04:40:11;;;;;;;3.58;1.95;;;;;;;14.32;100.00;94931.16;4978015;28;20022;-65
2023/09/21 04:42:38;;;;;;;2.13;1.70;;;;;;;14.35;100.00;94931.78;4978785;28;20027;-65
2023/09/21 04:45:09;;;;;;;3.90;2.03;;;;;;;14.36;100.00;94936.88;4986109;28;20585;-65
2023/09/21 04:47:43;;;;;;;2.13;1.80;;;;;;;14.40;100.00;94930.22;4966703;28;20491;-65
2023/09/21 04:50:10;;;;;;;3.30;2.20;;;;;;;14.42;100.00;94927.38;4970331;28;20022;-65
2023/09/21 04:52:36;;;;;;;3.50;2.05;;;;;;;14.39;100.00;94938.34;4975128;28;20018;-65
2023/09/21 04:55:04;;;;;;;1.98;1.88;;;;;;;14.38;100.00;94939.34;4990718;28;20026;-65
2023/09/21 04:57:31;;;;;;;2.45;1.95;;;;;;;14.37;100.00;94932.41;4989325;28;20033;-65
2023/09/21 04:59:57;;;;;;;3.47;1.77;;;;;;;14.37;100.00;94933.25;4971660;28;20050;-65
2023/09/21 05:02:23;;;;;;;3.10;1.85;;;;;;;14.41;100.00;94934.50;4981632;28;20026;-65
2023/09/21 05:04:50;;;;;;;3.72;2.15;;;;;;;14.41;100.00;94937.16;4973489;28;20022;-65
2023/09/21 05:07:17;;;;;;;2.10;1.90;;;;;;;14.42;100.00;94940.63;4991689;28;20018;-65
2023/09/21 05:09:46;;;;;;;1.88;1.70;;;;;;;14.41;100.00;94931.03;4973626;28;20073;-65
2023/09/21 05:12:13;;;;;;;2.08;1.90;;;;;;;14.38;100.00;94936.69;4986156;28;20023;-65
2023/09/21 05:14:39;;;;;;;3.03;1.55;;;;;;;14.40;100.00;94932.88;4982463;28;20026;-65
2023/09/21 05:17:05;;;;;;;4.15;2.13;;;;;;;14.42;100.00;94936.16;4988606;28;20031;-65
2023/09/21 05:19:34;;;;;;;3.78;2.00;;;;;;;14.40;100.00;94935.53;4987328;28;20052;-65
2023/09/21 05:22:01;;;;;;;6.88;2.30;;;;;;;14.43;100.00;94931.66;4986607;28;20590;-66
2023/09/21 05:24:28;;;;;;;6.38;2.05;;;;;;;14.45;100.00;94940.25;4989193;28;20109;-65
2023/09/21 05:26:54;;;;;;;4.15;1.80;;;;;;;14.53;100.00;94934.03;4989759;28;20090;-65
2023/09/21 05:29:21;;;;;;;2.10;2.00;;;;;;;14.51;100.00;94939.53;4980197;28;20530;-65
2023/09/21 05:31:49;;;;;;;3.30;1.77;;;;;;;14.51;100.00;94939.53;4956898;28;20117;-65
2023/09/21 05:34:18;;;;;;;3.00;2.00;;;;;;;14.55;100.00;94943.44;4974754;28;20533;-65
2023/09/21 05:36:50;;;;;;;2.67;1.75;;;;;;;14.58;100.00;94939.59;4987537;28;20052;-66
2023/09/21 05:39:17;;;;;;;3.33;2.25;;;;;;;14.66;100.00;94939.50;4980017;28;20061;-66
2023/09/21 05:41:49;;;;;;;3.72;2.15;;;;;;;14.66;100.00;94941.31;4980067;28;20464;-66
2023/09/21 05:44:24;;;;;;;6.13;2.10;;;;;;;14.65;100.00;94945.81;4983638;28;20037;-65
2023/09/21 05:46:50;;;;;;;3.40;1.98;;;;;;;14.67;100.00;94937.66;4961511;28;20129;-66
2023/09/21 05:49:23;;;;;;;5.80;2.10;;;;;;;14.68;100.00;94944.59;4997379;28;20084;-65
2023/09/21 05:51:52;;;;;;;4.05;2.10;;;;;;;14.78;100.00;94939.03;4980717;28;20031;-65
2023/09/21 05:54:25;;;;;;;3.50;2.00;;;;;;;14.80;100.00;94944.97;4975383;28;20030;-76
2023/09/21 05:56:55;;;;;;;3.47;1.80;;;;;;;14.84;100.00;94940.97;4990711;28;20491;-67
2023/09/21 05:59:23;;;;;;;2.53;2.25;;;;;;;14.90;100.00;94930.41;4981031;28;20092;-71
2023/09/21 06:01:52;;;;;;;2.40;2.00;;;;;;;15.08;100.00;94928.34;5001000;28;20160;-75
2023/09/21 06:04:22;;;;;;;4.05;1.85;;;;;;;15.12;100.00;94926.97;5004436;28;20030;-68
2023/09/21 06:06:48;;;;;;;4.85;1.67;;;;;;;15.16;100.00;94939.66;5004399;28;20042;-68
2023/09/21 06:09:22;;;;;;;2.72;1.70;;;;;;;15.22;100.00;94930.09;4979411;28;20047;-66
2023/09/21 06:11:48;;;;;;;5.82;2.22;;;;;;;15.26;100.00;94936.69;4986825;28;20030;-67
2023/09/21 06:14:17;;;;;;;2.95;2.45;;;;;;;15.33;100.00;94939.38;4979356;28;20498;-67
2023/09/21 06:16:43;;;;;;;4.50;2.05;;;;;;;15.43;100.00;94936.41;4973582;28;20598;-66
2023/09/21 06:19:11;;;;;;;3.20;2.40;;;;;;;15.48;100.00;94936.69;4947804;28;20088;-67
2023/09/21 06:21:39;;;;;;;2.40;2.20;;;;;;;15.52;100.00;94929.16;4972675;28;20039;-66
2023/09/21 06:24:06;;;;;;;3.75;2.58;;;;;;;15.57;100.00;94926.72;4947553;28;20031;-66
2023/09/21 06:26:32;;;;;;;5.80;2.85;;;;;;;15.64;100.00;94919.66;4998060;28;20041;-66
2023/09/21 06:28:59;;;;;;;5.15;2.80;;;;;;;15.70;100.00;94934.00;4985641;28;20054;-67
2023/09/21 06:31:25;;;;;;;7.82;3.10;;;;;;;15.70;100.00;94928.69;4978503;28;20029;-66
2023/09/21 06:33:58;;;;;;;5.53;2.72;;;;;;;15.69;100.00;94932.34;4969007;28;20034;-67
2023/09/21 06:36:33;;;;;;;7.22;3.00;;;;;;;15.71;100.00;94932.97;4980960;28;20407;-66
2023/09/21 06:38:59;;;;;;;7.38;2.60;;;;;;;15.77;100.00;94945.47;4975971;28;20030;-66
2023/09/21 06:41:26;;;;;;;3.22;2.72;;;;;;;15.84;100.00;94950.84;4991294;28;20095;-66
2023/09/21 06:43:53;;;;;;;5.35;2.70;;;;;;;15.93;100.00;94952.34;4978746;28;20034;-66
2023/09/21 06:46:19;;;;;;;5.50;2.40;;;;;;;15.98;100.00;94955.25;4991638;28;20118;-66
2023/09/21 06:48:45;;;;;;;4.43;2.60;;;;;;;16.04;100.00;94945.69;4987172;28;20030;-66
2023/09/21 06:51:12;;;;;;;6.03;2.70;;;;;;;16.16;100.00;94949.44;4966288;28;20054;-66
2023/09/21 06:53:38;;;;;;;8.20;2.90;;;;;;;16.25;100.00;94944.81;4991297;28;20034;-66
2023/09/21 06:56:05;;;;;;;4.18;2.45;;;;;;;16.28;100.00;94931.13;4991217;28;20026;-67
2023/09/21 06:58:31;;;;;;;9.63;2.72;;;;;;;16.35;100.00;94935.66;4993467;28;20035;-66
2023/09/21 07:00:58;;;;;;;4.97;1.98;;;;;;;16.45;100.00;94933.44;4993646;28;20036;-67
2023/09/21 07:03:25;;;;;;;2.22;2.03;;;;;;;16.59;100.00;94937.81;4964365;28;20034;-67
2023/09/21 07:05:54;;;;;;;4.65;2.33;;;;;;;16.71;100.00;94937.25;4993273;28;20048;-66
2023/09/21 07:08:20;;;;;;;3.08;1.95;;;;;;;16.83;100.00;94950.78;4994635;28;20042;-67
2023/09/21 07:10:47;;;;;;;5.13;2.10;;;;;;;16.85;100.00;94952.22;4994836;28;20140;-67
2023/09/21 07:13:14;;;;;;;2.38;1.70;;;;;;;16.84;100.00;94961.19;4984850;28;20491;-67
2023/09/21 07:15:41;;;;;;;7.10;2.38;;;;;;;16.83;100.00;94954.25;4988169;28;20031;-66
2023/09/21 07:18:08;;;;;;;6.47;1.75;;;;;;;16.85;100.00;94970.00;4985623;28;20035;-66
2023/09/21 07:20:37;;;;;;;3.45;1.80;;;;;;;16.89;100.00;94963.28;5002575;28;20030;-67
2023/09/21 07:23:03;;;;;;;8.80;1.88;;;;;;;16.94;100.00;94960.03;4990153;28;20022;-67
2023/09/21 07:25:30;;;;;;;3.05;2.75;;;;;;;17.05;100.00;94967.44;4994845;28;20031;-67
2023/09/21 07:28:01;;;;;;;2.00;1.40;;;;;;;17.13;100.00;94967.28;4978469;28;20026;-68
2023/09/21 07:30:28;;;;;;;2.72;1.73;;;;;;;17.25;100.00;94962.19;4998161;28;20120;-67
2023/09/21 07:32:55;;;;;;;2.22;1.50;;;;;;;17.30;100.00;94969.53;4996720;28;20018;-67
2023/09/21 07:35:21;;;;;;;2.45;1.98;;;;;;;17.16;100.00;94971.34;4990639;28;20066;-67
2023/09/21 07:37:49;;;;;;;4.80;1.88;;;;;;;17.02;100.00;94973.16;4993455;28;20033;-67
2023/09/21 07:40:16;;;;;;;4.40;2.47;;;;;;;17.15;100.00;94972.38;4972435;28;20031;-67
2023/09/21 07:42:48;;;;;;;4.72;1.77;;;;;;;17.01;100.00;94990.13;4968859;28;20019;-67
2023/09/21 07:45:15;;;;;;;3.63;1.67;;;;;;;17.03;100.00;94983.59;4990679;28;20051;-67
2023/09/21 07:47:45;;;;;;;2.55;1.50;;;;;;;17.17;100.00;94986.28;4990076;28;20030;-67
2023/09/21 07:50:12;;;;;;;2.00;1.80;;;;;;;17.31;100.00;94987.97;4991121;28;20025;-67
2023/09/21 07:52:38;;;;;;;1.63;1.52;;;;;;;17.46;100.00;94998.44;4996515;28;20034;-67
2023/09/21 07:55:04;;;;;;;5.95;2.38;;;;;;;17.61;100.00;94995.59;4988371;28;20026;-67
2023/09/21 07:57:34;;;;;;;2.45;2.15;;;;;;;17.84;100.00;94986.38;4996568;28;20035;-67
2023/09/21 08:00:00;;;;;;;6.32;2.15;;;;;;;18.03;100.00;94992.78;4995092;28;20068;-67
2023/09/21 08:02:28;;;;;;;2.05;1.70;;;;;;;18.18;100.00;94989.06;4992070;28;20112;-67
2023/09/21 08:04:57;;;;;;;1.60;1.50;;;;;;;18.32;100.00;94995.19;5008649;28;20037;-67
2023/09/21 08:07:25;;;;;;;1.70;1.60;;;;;;;18.34;100.00;95006.44;4998136;28;20018;-67
2023/09/21 08:09:56;;;;;;;2.03;1.50;;;;;;;18.32;100.00;94995.19;4997127;28;20026;-67
2023/09/21 08:12:24;;;;;;;3.97;1.50;;;;;;;18.37;100.00;95011.38;4999383;28;20049;-66
2023/09/21 08:14:50;;;;;;;2.20;1.92;;;;;;;18.36;100.00;95019.56;4976831;28;20032;-67
2023/09/21 08:17:16;;;;;;;2.58;1.73;;;;;;;18.40;100.00;95018.13;4996485;28;20880;-67
2023/09/21 08:19:42;;;;;;;3.67;1.73;;;;;;;18.39;100.00;95025.31;4996780;28;20015;-67
2023/09/21 08:22:09;;;;;;;3.28;1.75;;;;;;;18.39;100.00;95029.81;4993626;28;20113;-67
2023/09/21 08:24:36;;;;;;;4.45;2.05;;;;;;;18.29;100.00;95049.72;4989583;28;20026;-67
2023/09/21 08:27:05;;;;;;;4.00;1.83;;;;;;;18.26;100.00;95049.28;4961635;28;20030;-67
2023/09/21 08:29:31;;;;;;;3.55;1.63;;;;;;;18.43;100.00;95060.34;4975292;28;20172;-67
2023/09/21 08:31:58;;;;;;;3.05;1.70;;;;;;;18.63;100.00;95054.16;4987218;28;20382;-67
2023/09/21 08:34:25;;;;;;;2.88;1.45;;;;;;;18.88;100.00;95055.13;4979312;28;20026;-67
2023/09/21 08:36:52;;;;;;;2.75;1.40;;;;;;;19.22;100.00;95063.03;4986893;28;20479;-67
2023/09/21 08:39:21;;;;;;;3.05;1.33;;;;;;;19.69;100.00;95064.69;4971820;28;20118;-67
2023/09/21 08:41:49;;;;;;;0.90;0.90;;;;;;;20.01;100.00;95025.47;4993705;28;20032;-67
2023/09/21 08:44:17;;;;;;;2.10;1.00;;;;;;;20.17;100.00;95023.25;4964515;28;20134;-67
2023/09/21 08:46:51;;;;;;;2.33;1.17;;;;;;;20.30;100.00;95023.16;4969924;28;20046;-68
2023/09/21 08:49:21;;;;;;;1.02;1.02;;;;;;;20.46;100.00;95023.63;4974581;28;20037;-67
2023/09/21 08:51:54;;;;;;;1.85;1.08;;;;;;;20.44;100.00;95012.31;4995602;28;20037;-67
2023/09/21 08:54:23;;;;;;;1.40;1.10;;;;;;;20.38;100.00;95011.38;4990065;28;20022;-67
2023/09/21 08:56:55;;;;;;;2.70;1.10;;;;;;;20.28;100.00;95019.88;4985681;28;20121;-67
2023/09/21 08:59:23;;;;;;;1.80;1.20;;;;;;;20.35;100.00;95027.00;4998791;28;20034;-66
2023/09/21 09:01:49;;;;;;;3.60;1.00;;;;;;;20.23;100.00;95019.72;4976315;28;20034;-67
2023/09/21 09:04:19;;;;;;;1.00;0.88;;;;;;;20.20;100.00;95027.34;4976559;28;20035;-67
2023/09/21 09:06:46;;;;;;;1.02;0.93;;;;;;;20.16;100.00;95034.97;5025524;28;20029;-67
2023/09/21 09:09:15;;;;;;;1.00;1.00;;;;;;;20.22;100.00;95033.31;4976519;28;20030;-67
2023/09/21 09:11:44;;;;;;;3.30;0.90;;;;;;;20.33;100.00;95019.19;4978343;28;20553;-67
2023/09/21 09:14:19;;;;;;;1.45;0.98;;;;;;;20.27;100.00;95020.94;4990115;28;20064;-67
2023/09/21 09:16:52;;;;;;;0.90;0.90;;;;;;;20.25;100.00;95017.66;4977387;28;20025;-67
2023/09/21 09:19:19;;;;;;;1.67;1.00;;;;;;;19.90;100.00;95016.25;4964976;28;20045;-67
2023/09/21 09:21:44;;;;;;;1.30;1.10;;;;;;;20.01;100.00;95020.13;4991908;28;20068;-67
2023/09/21 09:24:12;;;;;;;1.00;0.73;;;;;;;19.88;100.00;95028.19;4985961;28;20031;-67
2023/09/21 09:26:41;;;;;;;1.20;0.93;;;;;;;19.90;100.00;95026.13;4993999;28;20035;-67
2023/09/21 09:29:12;;;;;;;3.00;1.10;;;;;;;19.77;100.00;95029.69;4998667;28;20034;-67
2023/09/21 09:31:41;;;;;;;1.95;1.25;;;;;;;19.76;100.00;95025.41;4988093;28;20464;-67
2023/09/21 09:34:09;;;;;;;1.33;1.08;;;;;;;19.65;100.00;95024.22;4993991;28;20038;-66
2023/09/21 09:36:37;;;;;;;1.17;0.90;;;;;;;19.68;100.00;95023.00;4998318;28;20096;-67
2023/09/21 09:39:09;;;;;;;5.07;0.90;;;;;;;19.67;100.00;95024.84;4998729;28;20117;-67
2023/09/21 09:41:36;;;;;;;1.13;0.98;;;;;;;19.75;100.00;95007.75;4995308;28;20113;-67
2023/09/21 09:44:06;;;;;;;1.60;1.02;;;;;;;19.87;100.00;95000.66;4973585;28;20774;-67
2023/09/21 09:46:41;;;;;;;1.10;1.02;;;;;;;19.96;100.00;94993.22;4992218;28;20053;-67
2023/09/21 09:49:10;;;;;;;1.73;1.00;;;;;;;20.02;100.00;94987.03;4960991;28;20433;-67
2023/09/21 09:51:41;;;;;;;5.53;1.13;;;;;;;20.15;100.00;94995.94;4963933;28;20043;-68
2023/09/21 09:54:11;;;;;;;1.65;1.17;;;;;;;20.25;100.00;94988.25;4963145;28;20037;-67
2023/09/21 09:56:44;;;;;;;1.08;0.82;;;;;;;20.32;100.00;94978.31;4998678;28;20428;-67
2023/09/21 09:59:12;;;;;;;1.40;0.80;;;;;;;20.45;100.00;94985.38;4993263;28;20038;-67
2023/09/21 10:01:47;;;;;;;1.38;1.05;;;;;;;20.43;100.00;94981.28;4978535;28;20042;-67
2023/09/21 10:04:15;;;;;;;1.90;1.00;;;;;;;20.60;100.00;94984.22;4994149;28;20395;-67
2023/09/21 10:06:42;;;;;;;1.33;0.80;;;;;;;20.36;100.00;94973.34;4973684;28;20396;-68
2023/09/21 10:09:10;;;;;;;1.92;1.20;;;;;;;20.41;100.00;94972.66;4991722;28;20026;-67
2023/09/21 10:11:48;;;;;;;0.93;0.85;;;;;;;20.58;100.00;94963.03;4984399;28;20057;-67
2023/09/21 10:14:16;;;;;;;3.08;1.00;;;;;;;20.61;100.00;94954.56;4991110;28;20403;-68
2023/09/21 10:16:49;;;;;;;1.05;0.90;;;;;;;20.71;100.00;94951.38;5001097;28;20051;-67
2023/09/21 10:19:25;;;;;;;2.05;1.13;;;;;;;20.66;100.00;94945.03;4991877;28;20026;-68
2023/09/21 10:21:56;;;;;;;1.60;0.90;;;;;;;20.68;100.00;94951.81;4965912;28;20034;-68
2023/09/21 10:24:26;;;;;;;1.65;1.30;;;;;;;20.77;100.00;94965.69;4994006;28;20057;-68
2023/09/21 10:26:53;;;;;;;1.05;0.82;;;;;;;20.90;100.00;94959.41;4987496;28;20037;-68
2023/09/21 10:29:30;;;;;;;1.27;0.95;;;;;;;21.06;100.00;94955.28;4968758;28;20080;-68
2023/09/21 10:32:03;;;;;;;1.63;0.95;;;;;;;21.22;100.00;94935.13;4980654;28;20389;-68
2023/09/21 10:34:29;;;;;;;0.98;0.98;;;;;;;21.28;100.00;94942.25;4978574;28;20026;-66
2023/09/21 10:37:06;;;;;;;1.50;0.98;;;;;;;21.29;100.00;94935.84;4981920;28;20273;-66
2023/09/21 10:39:33;;;;;;;6.30;1.00;;;;;;;21.31;100.00;94932.91;4982999;28;20034;-66
2023/09/21 10:42:04;;;;;;;3.17;1.05;;;;;;;21.02;100.00;94941.56;4988855;28;20056;-66
2023/09/21 10:45:02;;;;;;;1.10;0.70;;;;;;;21.09;100.00;94936.09;4980117;28;20026;-67
2023/09/21 10:47:39;;;;;;;0.93;0.90;;;;;;;21.24;100.00;94929.53;4993863;28;20482;-66
2023/09/21 10:50:06;;;;;;;;;;;;;;;20.96;100.00;94925.59;4992319;28;20030;-66
2023/09/21 10:52:33;;;;;;;1.48;0.98;;;;;;;20.86;100.00;94921.56;4976328;28;19916;-66
2023/09/21 10:54:59;;;;;;;3.53;0.75;;;;;;;20.73;100.00;94935.91;4981201;28;20086;-66
2023/09/21 10:57:29;;;;;;;0.82;0.82;;;;;;;20.77;100.00;94944.31;4994470;28;20022;-67
2023/09/21 10:59:59;;;;;;;1.75;1.00;;;;;;;20.96;100.00;94925.59;4969917;28;20041;-66
2023/09/21 11:02:30;;;;;;;1.13;0.82;;;;;;;20.76;100.00;94915.94;4993604;28;20061;-69
2023/09/21 11:04:58;;;;;;;0.82;0.60;;;;;;;20.82;100.00;94917.72;4976914;28;20033;-69
2023/09/21 11:07:25;;;;;;;3.47;0.90;;;;;;;20.70;100.00;94922.19;4970556;28;20595;-69
2023/09/21 11:09:51;;;;;;;0.85;0.82;;;;;;;20.62;100.00;94923.31;4992153;28;20100;-66
2023/09/21 11:12:17;;;;;;;0.70;0.70;;;;;;;20.49;100.00;94937.63;4989801;28;20479;-68
2023/09/21 11:14:48;;;;;;;0.93;0.80;;;;;;;20.75;100.00;94935.69;4997077;28;20042;-68
2023/09/21 11:17:18;;;;;;;0.70;0.70;;;;;;;20.80;100.00;94919.00;4992085;28;20022;-67
2023/09/21 11:19:45;;;;;;;2.17;0.82;;;;;;;20.74;100.00;94923.38;4987734;28;20085;-67
2023/09/21 11:22:14;;;;;;;0.50;0.50;;;;;;;21.15;100.00;94900.41;4994151;28;20061;-66
2023/09/21 11:24:40;;;;;;;2.13;0.70;;;;;;;20.96;100.00;94904.19;4998487;28;20110;-67
2023/09/21 11:27:13;;;;;;;1.15;1.00;;;;;;;21.05;100.00;94900.13;5002033;28;20075;-66
2023/09/21 11:29:41;;;;;;;1.15;0.80;;;;;;;21.54;100.00;94888.50;4994694;28;20113;-69
2023/09/21 11:32:08;;;;;;;2.60;0.85;;;;;;;21.93;100.00;94872.03;4995727;28;20038;-68